Time;durP1;ratioP1;P1;durP2;ratioP2;P2;SDS_P1;SDS_P2;PMS_P1;PMS_P2;Temp;Humidity;BMP_temperature;BMP_pressure;BME280_temperature;BME280_humidity;BME280_pressure;Samples;Min_cycle;Max_cycle;Signal;HPM_P1;HPM_P2
2021/09/13 00:01:14;;;;;;;6.65;3.22;;;;;;;;;;5054194;28;20454;-90
2021/09/13 00:03:39;;;;;;;4.75;3.10;;;;;;;;;;5055400;28;20042;-89
2021/09/13 00:06:04;;;;;;;10.00;3.20;;;;;;;;;;5053986;28;20025;-89
2021/09/13 00:08:30;;;;;;;5.63;3.15;;;;;;;;;;5053978;28;20021;-89
2021/09/13 00:10:55;;;;;;;7.90;2.90;;;;;;;;;;5054947;28;20017;-89
2021/09/13 00:13:20;;;;;;;4.78;2.85;;;;;;;;;;5053393;28;20166;-89
2021/09/13 00:15:45;;;;;;;4.90;3.00;;;;;;;;;;5054032;28;20079;-89
2021/09/13 00:18:10;;;;;;;4.88;3.05;;;;;;;;;;5055007;28;20055;-89
2021/09/13 00:20:36;;;;;;;5.32;3.00;;;;;;;;;;5053070;28;20025;-89
2021/09/13 00:23:01;;;;;;;6.88;3.35;;;;;;;;;;5053712;28;20021;-89
2021/09/13 00:25:26;;;;;;;7.45;4.20;;;;;;;;;;5053937;28;20487;-89
2021/09/13 00:27:53;;;;;;;7.80;3.80;;;;;;;;;;5053830;28;20066;-89
2021/09/13 00:30:19;;;;;;;6.18;3.15;;;;;;;;;;5053241;28;20062;-89
2021/09/13 00:32:44;;;;;;;6.72;3.97;;;;;;;;;;5053538;28;20464;-90
2021/09/13 00:35:09;;;;;;;6.07;3.30;;;;;;;;;;5053610;28;20028;-89
2021/09/13 00:37:35;;;;;;;9.23;3.55;;;;;;;;;;5053718;28;20163;-89
2021/09/13 00:40:00;;;;;;;6.80;3.42;;;;;;;;;;5053438;28;20013;-89
2021/09/13 00:42:25;;;;;;;4.78;3.42;;;;;;;;;;5054605;28;20495;-89
2021/09/13 00:44:50;;;;;;;6.32;3.75;;;;;;;;;;5053253;28;20025;-89
2021/09/13 00:47:16;;;;;;;9.70;4.10;;;;;;;;;;5054242;28;20511;-89
2021/09/13 00:49:41;;;;;;;6.10;3.38;;;;;;;;;;5052916;28;20021;-89
2021/09/13 00:52:07;;;;;;;8.45;3.55;;;;;;;;;;5052791;28;20063;-92
2021/09/13 00:54:32;;;;;;;8.25;3.65;;;;;;;;;;5053066;28;20063;-89
2021/09/13 00:56:57;;;;;;;5.18;3.30;;;;;;;;;;5054207;28;20016;-89
2021/09/13 00:59:23;;;;;;;10.65;3.80;;;;;;;;;;5052960;28;20063;-89
2021/09/13 01:01:48;;;;;;;5.22;3.22;;;;;;;;;;5052844;28;20476;-89
2021/09/13 01:04:13;;;;;;;6.55;3.42;;;;;;;;;;5053824;28;20021;-89
2021/09/13 01:06:39;;;;;;;6.63;2.60;;;;;;;;;;5053273;28;20022;-90
2021/09/13 01:09:04;;;;;;;7.97;3.45;;;;;;;;;;5053098;28;20013;-90
2021/09/13 01:11:29;;;;;;;5.43;3.00;;;;;;;;;;5053041;28;20028;-90
2021/09/13 01:13:54;;;;;;;5.57;3.08;;;;;;;;;;5052381;28;20013;-89
2021/09/13 01:16:20;;;;;;;5.82;3.60;;;;;;;;;;5053937;28;20020;-90
2021/09/13 01:18:45;;;;;;;7.60;3.33;;;;;;;;;;5053000;28;20020;-89
2021/09/13 01:21:10;;;;;;;6.22;3.50;;;;;;;;;;5052696;28;20017;-89
2021/09/13 01:23:36;;;;;;;5.35;3.63;;;;;;;;;;5052748;28;20111;-89
2021/09/13 01:26:02;;;;;;;5.82;3.30;;;;;;;;;;5053097;28;20530;-90
2021/09/13 01:28:27;;;;;;;6.65;3.78;;;;;;;;;;5052536;28;20049;-89
2021/09/13 01:30:53;;;;;;;8.68;3.33;;;;;;;;;;5052520;28;20108;-89
2021/09/13 01:33:18;;;;;;;7.40;3.83;;;;;;;;;;5052430;28;20075;-89
2021/09/13 01:35:43;;;;;;;6.93;3.28;;;;;;;;;;5052296;28;20028;-90
2021/09/13 01:38:09;;;;;;;6.63;3.60;;;;;;;;;;5052251;28;20020;-89
2021/09/13 01:40:34;;;;;;;7.85;3.92;;;;;;;;;;5053651;28;20024;-90
2021/09/13 01:43:00;;;;;;;5.63;3.85;;;;;;;;;;5052234;28;20051;-89
2021/09/13 01:45:26;;;;;;;6.47;3.80;;;;;;;;;;5051980;28;20029;-89
2021/09/13 01:47:51;;;;;;;6.50;3.72;;;;;;;;;;5052598;28;20016;-89
2021/09/13 01:50:17;;;;;;;7.82;3.53;;;;;;;;;;5052198;28;20024;-88
2021/09/13 01:52:42;;;;;;;7.63;3.88;;;;;;;;;;5052344;28;20021;-89
2021/09/13 01:55:07;;;;;;;4.95;3.65;;;;;;;;;;5053520;28;20059;-90
2021/09/13 01:57:32;;;;;;;8.43;3.47;;;;;;;;;;5052511;28;20082;-90
2021/09/13 01:59:58;;;;;;;6.70;3.60;;;;;;;;;;5053291;28;20021;-90
2021/09/13 02:02:23;;;;;;;6.93;3.80;;;;;;;;;;5051933;28;20017;-90
2021/09/13 02:04:48;;;;;;;5.60;3.42;;;;;;;;;;5051533;28;20063;-89
2021/09/13 02:07:13;;;;;;;7.15;3.42;;;;;;;;;;5052204;28;20036;-89
2021/09/13 02:09:38;;;;;;;5.90;3.65;;;;;;;;;;5052310;28;20058;-89
2021/09/13 02:12:04;;;;;;;7.25;3.75;;;;;;;;;;5053251;28;20017;-89
2021/09/13 02:14:29;;;;;;;5.47;3.47;;;;;;;;;;5051855;28;20020;-89
2021/09/13 02:16:54;;;;;;;6.93;3.58;;;;;;;;;;5051609;28;20013;-89
2021/09/13 02:19:20;;;;;;;12.20;3.60;;;;;;;;;;5085732;28;20021;-89
2021/09/13 02:21:45;;;;;;;7.82;3.97;;;;;;;;;;5038157;28;20502;-89
2021/09/13 02:24:10;;;;;;;8.82;3.75;;;;;;;;;;5051931;28;20029;-89
2021/09/13 02:26:35;;;;;;;7.03;4.20;;;;;;;;;;5052222;28;20048;-89
2021/09/13 02:29:01;;;;;;;8.23;4.30;;;;;;;;;;5053143;28;20096;-89
2021/09/13 02:31:27;;;;;;;8.25;4.55;;;;;;;;;;5051821;28;20104;-89
2021/09/13 02:33:52;;;;;;;6.70;4.13;;;;;;;;;;5051947;28;20009;-89
2021/09/13 02:36:17;;;;;;;9.27;4.30;;;;;;;;;;5053182;28;20567;-89
2021/09/13 02:38:42;;;;;;;10.57;4.97;;;;;;;;;;5055438;28;20025;-89
2021/09/13 02:41:07;;;;;;;8.38;4.88;;;;;;;;;;5075628;28;20016;-89
2021/09/13 02:43:33;;;;;;;9.35;4.70;;;;;;;;;;5075633;28;20016;-89
2021/09/13 02:45:59;;;;;;;12.10;4.68;;;;;;;;;;5058508;28;20476;-89
2021/09/13 02:48:24;;;;;;;9.68;4.25;;;;;;;;;;5057033;28;20021;-89
2021/09/13 02:50:49;;;;;;;8.00;4.72;;;;;;;;;;5075524;28;20749;-89
2021/09/13 02:53:14;;;;;;;7.65;4.50;;;;;;;;;;5075622;28;20371;-89
2021/09/13 02:55:40;;;;;;;7.60;4.95;;;;;;;;;;5076500;28;20025;-89
2021/09/13 02:58:05;;;;;;;10.88;5.28;;;;;;;;;;5064429;28;20365;-89
2021/09/13 03:00:30;;;;;;;8.18;4.55;;;;;;;;;;5063395;28;20017;-89
2021/09/13 03:02:55;;;;;;;15.00;4.68;;;;;;;;;;5076548;28;20020;-89
2021/09/13 03:05:21;;;;;;;9.63;4.90;;;;;;;;;;5074363;28;20024;-89
2021/09/13 03:07:46;;;;;;;6.93;4.78;;;;;;;;;;5056555;28;20012;-90
2021/09/13 03:10:11;;;;;;;8.20;5.63;;;;;;;;;;5067290;28;20135;-89
2021/09/13 03:12:36;;;;;;;7.78;4.63;;;;;;;;;;5060948;28;20016;-89
2021/09/13 03:15:07;;;;;;;8.07;4.80;;;;;;;;;;5065931;28;20036;-89
2021/09/13 03:17:32;;;;;;;8.43;4.85;;;;;;;;;;5071792;28;20098;-89
2021/09/13 03:19:57;;;;;;;8.02;4.68;;;;;;;;;;5075053;28;20123;-89
2021/09/13 03:22:22;;;;;;;9.75;5.10;;;;;;;;;;5060713;28;20025;-89
2021/09/13 03:24:47;;;;;;;7.38;4.40;;;;;;;;;;5068553;28;20021;-89
2021/09/13 03:27:13;;;;;;;10.73;5.45;;;;;;;;;;5067374;28;20024;-89
2021/09/13 03:29:38;;;;;;;8.15;4.70;;;;;;;;;;5070408;28;20016;-88
2021/09/13 03:32:03;;;;;;;10.07;4.20;;;;;;;;;;5064868;28;20024;-89
2021/09/13 03:34:28;;;;;;;8.45;4.47;;;;;;;;;;5072490;28;20472;-89
2021/09/13 03:36:54;;;;;;;10.57;5.35;;;;;;;;;;5062842;28;20008;-89
2021/09/13 03:39:19;;;;;;;7.78;4.28;;;;;;;;;;5074509;28;20013;-88
2021/09/13 03:41:45;;;;;;;7.85;4.70;;;;;;;;;;5054722;28;20060;-89
2021/09/13 03:44:10;;;;;;;7.90;4.90;;;;;;;;;;5061299;28;20500;-89
2021/09/13 03:46:35;;;;;;;7.82;4.68;;;;;;;;;;5071266;28;20058;-89
2021/09/13 03:49:00;;;;;;;9.18;4.68;;;;;;;;;;5064767;28;20017;-89
2021/09/13 03:51:26;;;;;;;7.47;4.78;;;;;;;;;;5068537;28;20519;-89
2021/09/13 03:53:51;;;;;;;11.77;5.25;;;;;;;;;;5061322;28;20013;-89
2021/09/13 03:56:16;;;;;;;10.82;6.07;;;;;;;;;;5075650;28;20460;-89
2021/09/13 03:58:41;;;;;;;14.07;5.38;;;;;;;;;;5061242;28;20509;-89
2021/09/13 04:01:06;;;;;;;8.82;4.50;;;;;;;;;;5064357;28;20013;-89
2021/09/13 04:03:44;;;;;;;7.47;4.03;;;;;;;;;;5059036;28;20025;-89
2021/09/13 04:06:18;;;;;;;17.25;4.80;;;;;;;;;;5064139;28;20013;-89
2021/09/13 04:09:40;;;;;;;8.95;4.28;;;;;;;;;;5073864;28;20066;-90
2021/09/13 04:11:46;;;;;;;7.47;4.18;;;;;;;;;;5075082;28;20024;-88
2021/09/13 04:14:11;;;;;;;7.05;4.03;;;;;;;;;;5070038;28;20040;-89
2021/09/13 04:16:36;;;;;;;8.93;4.93;;;;;;;;;;5065651;28;20067;-89
2021/09/13 04:19:02;;;;;;;5.93;3.97;;;;;;;;;;5055924;28;20021;-89
2021/09/13 04:21:27;;;;;;;8.02;4.28;;;;;;;;;;5063775;28;20035;-89
2021/09/13 04:23:52;;;;;;;5.70;4.00;;;;;;;;;;5073234;28;20016;-89
2021/09/13 04:26:17;;;;;;;11.27;4.20;;;;;;;;;;5053930;28;20017;-89
2021/09/13 04:28:42;;;;;;;7.60;3.95;;;;;;;;;;5068697;28;20020;-89
2021/09/13 04:31:08;;;;;;;7.80;5.03;;;;;;;;;;5068212;28;20009;-89
2021/09/13 04:33:33;;;;;;;8.10;4.28;;;;;;;;;;5053772;28;20021;-89
2021/09/13 04:35:58;;;;;;;7.32;4.68;;;;;;;;;;5070854;28;20024;-89
2021/09/13 04:38:23;;;;;;;9.20;4.15;;;;;;;;;;5074715;28;20460;-88
2021/09/13 04:40:49;;;;;;;8.70;3.80;;;;;;;;;;5074383;28;20070;-89
2021/09/13 04:43:14;;;;;;;10.23;5.15;;;;;;;;;;5073359;28;20024;-89
2021/09/13 04:45:39;;;;;;;7.97;4.63;;;;;;;;;;5067112;28;20068;-89
2021/09/13 04:48:04;;;;;;;7.68;5.00;;;;;;;;;;5071288;28;20043;-90
2021/09/13 04:50:29;;;;;;;10.23;4.15;;;;;;;;;;5058885;28;20468;-89
2021/09/13 04:52:55;;;;;;;7.57;4.40;;;;;;;;;;5071839;28;20054;-89
2021/09/13 04:55:20;;;;;;;8.50;4.28;;;;;;;;;;5071687;28;20132;-90
2021/09/13 04:57:45;;;;;;;9.20;4.05;;;;;;;;;;5060595;28;20471;-90
2021/09/13 05:00:11;;;;;;;7.93;4.35;;;;;;;;;;5054091;28;20479;-89
2021/09/13 05:02:36;;;;;;;8.50;4.00;;;;;;;;;;5071596;28;20029;-89
2021/09/13 05:05:02;;;;;;;5.03;3.55;;;;;;;;;;5056866;28;20362;-89
2021/09/13 05:07:27;;;;;;;10.38;4.25;;;;;;;;;;5057782;28;20020;-89
2021/09/13 05:09:52;;;;;;;8.32;4.65;;;;;;;;;;5058941;28;20041;-90
2021/09/13 05:12:18;;;;;;;6.28;3.90;;;;;;;;;;5051488;28;20052;-90
2021/09/13 05:14:43;;;;;;;7.40;3.85;;;;;;;;;;5052694;28;20473;-90
2021/09/13 05:17:08;;;;;;;6.70;4.28;;;;;;;;;;5068943;28;20028;-90
2021/09/13 05:19:33;;;;;;;7.10;4.32;;;;;;;;;;5072708;28;20422;-89
2021/09/13 05:21:59;;;;;;;9.45;4.90;;;;;;;;;;5072761;28;20036;-89
2021/09/13 05:24:24;;;;;;;7.30;4.43;;;;;;;;;;5061753;28;20028;-90
2021/09/13 05:26:49;;;;;;;10.90;4.75;;;;;;;;;;5072817;28;20480;-89
2021/09/13 05:29:14;;;;;;;10.82;4.97;;;;;;;;;;5072438;28;20042;-89
2021/09/13 05:31:39;;;;;;;9.13;4.70;;;;;;;;;;5072392;28;20023;-89
2021/09/13 05:34:05;;;;;;;9.20;5.18;;;;;;;;;;5058505;28;20017;-89
2021/09/13 05:36:30;;;;;;;12.23;4.85;;;;;;;;;;5061476;28;20028;-90
2021/09/13 05:38:55;;;;;;;9.35;4.47;;;;;;;;;;5072060;28;20039;-89
2021/09/13 05:41:20;;;;;;;9.48;5.43;;;;;;;;;;5072368;28;20025;-89
2021/09/13 05:43:45;;;;;;;7.78;4.80;;;;;;;;;;5054541;28;20033;-87
2021/09/13 05:46:11;;;;;;;7.03;4.43;;;;;;;;;;5065568;28;20538;-90
2021/09/13 05:48:36;;;;;;;7.00;4.55;;;;;;;;;;5052176;28;20021;-89
2021/09/13 05:51:01;;;;;;;7.55;4.22;;;;;;;;;;5063596;28;20538;-89
2021/09/13 05:53:26;;;;;;;6.32;3.95;;;;;;;;;;5060113;28;20051;-90
2021/09/13 05:55:51;;;;;;;8.00;4.18;;;;;;;;;;5073303;28;20460;-90
2021/09/13 05:58:17;;;;;;;5.78;3.95;;;;;;;;;;5070750;28;20020;-89
2021/09/13 06:00:42;;;;;;;8.55;3.88;;;;;;;;;;5052282;28;20017;-89
2021/09/13 06:03:08;;;;;;;5.85;3.92;;;;;;;;;;5065454;28;20035;-90
2021/09/13 06:05:34;;;;;;;7.75;4.57;;;;;;;;;;5057536;28;20024;-90
2021/09/13 06:07:59;;;;;;;11.90;4.20;;;;;;;;;;5070627;28;20487;-88
2021/09/13 06:10:24;;;;;;;11.02;5.05;;;;;;;;;;5057128;28;20016;-89
2021/09/13 06:12:49;;;;;;;10.10;4.90;;;;;;;;;;5063676;28;20012;-89
2021/09/13 06:15:15;;;;;;;7.50;4.53;;;;;;;;;;5067832;28;20056;-89
2021/09/13 06:17:40;;;;;;;8.73;5.20;;;;;;;;;;5078675;28;20040;-90
2021/09/13 06:20:05;;;;;;;7.78;5.00;;;;;;;;;;5061134;28;20044;-90
2021/09/13 06:22:31;;;;;;;10.75;5.88;;;;;;;;;;5072404;28;20074;-89
2021/09/13 06:24:56;;;;;;;10.02;5.50;;;;;;;;;;5068903;28;20029;-89
2021/09/13 06:27:22;;;;;;;9.85;5.47;;;;;;;;;;5075644;28;20024;-89
2021/09/13 06:29:47;;;;;;;13.68;6.15;;;;;;;;;;5068138;28;20024;-90
2021/09/13 06:32:12;;;;;;;14.20;7.00;;;;;;;;;;5078048;28;20039;-89
2021/09/13 06:34:38;;;;;;;12.98;7.03;;;;;;;;;;5064683;28;20021;-90
2021/09/13 06:37:03;;;;;;;14.10;7.18;;;;;;;;;;5078552;28;20460;-90
2021/09/13 06:39:29;;;;;;;14.40;7.82;;;;;;;;;;5079514;28;20039;-89
2021/09/13 06:41:54;;;;;;;16.98;8.95;;;;;;;;;;5078095;28;20021;-89
2021/09/13 06:44:22;;;;;;;14.60;7.75;;;;;;;;;;5078033;28;20487;-90
2021/09/13 06:46:50;;;;;;;21.30;8.65;;;;;;;;;;5062359;28;20460;-89
2021/09/13 06:49:18;;;;;;;15.55;8.48;;;;;;;;;;5058329;28;20029;-90
2021/09/13 06:51:43;;;;;;;17.77;8.45;;;;;;;;;;5075501;28;20099;-90
2021/09/13 06:54:08;;;;;;;15.05;8.40;;;;;;;;;;5078535;28;20040;-90
2021/09/13 06:56:34;;;;;;;16.88;7.95;;;;;;;;;;5076260;28;20016;-89
2021/09/13 06:58:59;;;;;;;12.63;6.70;;;;;;;;;;5078370;28;20020;-90
2021/09/13 07:01:24;;;;;;;16.40;8.07;;;;;;;;;;5070527;28;20123;-89
2021/09/13 07:03:57;;;;;;;18.38;8.52;;;;;;;;;;5060914;28;20093;-90
2021/09/13 07:06:23;;;;;;;17.90;8.30;;;;;;;;;;5078030;28;20050;-90
2021/09/13 07:08:48;;;;;;;14.38;7.07;;;;;;;;;;5060023;28;20016;-90
2021/09/13 07:11:13;;;;;;;15.63;7.45;;;;;;;;;;5057627;28;20119;-90
2021/09/13 07:13:38;;;;;;;14.23;7.25;;;;;;;;;;5068886;28;20028;-90
2021/09/13 07:16:03;;;;;;;16.55;7.30;;;;;;;;;;5074586;28;20047;-89
2021/09/13 07:18:29;;;;;;;12.30;7.13;;;;;;;;;;5063020;28;20021;-90
2021/09/13 07:20:54;;;;;;;16.00;7.45;;;;;;;;;;5075412;28;20020;-89
2021/09/13 07:23:19;;;;;;;14.60;5.88;;;;;;;;;;5066356;28;20028;-89
2021/09/13 07:25:45;;;;;;;14.50;6.38;;;;;;;;;;5066935;28;20031;-90
2021/09/13 07:28:10;;;;;;;17.23;7.25;;;;;;;;;;5056856;28;20495;-90
2021/09/13 07:30:35;;;;;;;13.48;5.60;;;;;;;;;;5069545;28;20495;-90
2021/09/13 07:33:00;;;;;;;13.00;6.43;;;;;;;;;;5071439;28;20696;-90
2021/09/13 07:35:26;;;;;;;12.20;5.68;;;;;;;;;;5074388;28;20041;-90
2021/09/13 07:37:52;;;;;;;12.48;6.47;;;;;;;;;;5074494;28;20020;-90
2021/09/13 07:40:17;;;;;;;17.77;6.65;;;;;;;;;;5065482;28;20492;-90
2021/09/13 07:42:45;;;;;;;15.30;5.97;;;;;;;;;;5055133;28;20021;-90
2021/09/13 07:45:11;;;;;;;16.10;6.85;;;;;;;;;;5053657;28;20025;-90
2021/09/13 07:47:36;;;;;;;12.85;6.00;;;;;;;;;;5066889;28;20033;-90
2021/09/13 07:50:02;;;;;;;9.85;5.53;;;;;;;;;;5070970;28;20112;-90
2021/09/13 07:52:28;;;;;;;15.23;5.35;;;;;;;;;;5063439;28;20055;-88
2021/09/13 07:54:53;;;;;;;9.48;4.57;;;;;;;;;;5074236;28;20028;-90
2021/09/13 07:57:19;;;;;;;9.98;4.55;;;;;;;;;;5061186;28;20025;-90
2021/09/13 07:59:44;;;;;;;10.02;5.00;;;;;;;;;;5058263;28;20029;-90
2021/09/13 08:02:10;;;;;;;9.27;4.40;;;;;;;;;;5060192;28;20051;-90
2021/09/13 08:04:35;;;;;;;11.18;4.72;;;;;;;;;;5062967;28;20104;-90
2021/09/13 08:07:00;;;;;;;7.47;4.10;;;;;;;;;;5070790;28;20013;-90
2021/09/13 08:09:26;;;;;;;6.13;3.50;;;;;;;;;;5065101;28;20082;-90
2021/09/13 08:11:51;;;;;;;11.75;4.63;;;;;;;;;;5069787;28;20025;-90
2021/09/13 08:14:16;;;;;;;9.57;3.38;;;;;;;;;;5060553;28;20477;-90
2021/09/13 08:16:41;;;;;;;13.85;3.40;;;;;;;;;;5066556;28;20028;-90
2021/09/13 08:19:06;;;;;;;8.68;3.15;;;;;;;;;;5073561;28;20023;-90
2021/09/13 08:21:34;;;;;;;7.63;3.50;;;;;;;;;;5074748;28;20100;-90
2021/09/13 08:23:59;;;;;;;8.70;3.70;;;;;;;;;;5058736;28;20380;-90
2021/09/13 08:26:24;;;;;;;7.05;3.40;;;;;;;;;;5062184;28;20040;-89
2021/09/13 08:28:49;;;;;;;10.80;3.60;;;;;;;;;;5073355;28;20024;-90
2021/09/13 08:31:15;;;;;;;5.53;3.38;;;;;;;;;;5068360;28;20081;-90
2021/09/13 08:33:40;;;;;;;11.98;3.60;;;;;;;;;;5068550;28;20012;-90
2021/09/13 08:36:05;;;;;;;13.45;4.18;;;;;;;;;;5060350;28;20565;-90
2021/09/13 08:38:30;;;;;;;9.75;4.32;;;;;;;;;;5073575;28;20020;-90
2021/09/13 08:40:56;;;;;;;10.25;4.85;;;;;;;;;;5057004;28;20412;-89
2021/09/13 08:43:21;;;;;;;11.23;3.60;;;;;;;;;;5060995;28;20384;-90
2021/09/13 08:45:51;;;;;;;7.70;4.05;;;;;;;;;;5073123;28;20097;-90
2021/09/13 08:48:23;;;;;;;16.52;4.78;;;;;;;;;;5057895;28;20027;-90
2021/09/13 08:53:20;;;;;;;7.40;3.50;;;;;;;;;;5069775;28;20027;-90
2021/09/13 08:55:46;;;;;;;12.60;5.03;;;;;;;;;;5051372;28;20016;-90
2021/09/13 08:58:11;;;;;;;7.07;3.85;;;;;;;;;;5073049;28;20752;-89
2021/09/13 09:00:41;;;;;;;9.95;3.83;;;;;;;;;;5070150;28;20033;-90
2021/09/13 09:03:06;;;;;;;5.63;3.33;;;;;;;;;;5065844;28;20021;-90
2021/09/13 09:05:37;;;;;;;11.82;3.28;;;;;;;;;;5069171;28;20063;-90
2021/09/13 09:08:03;;;;;;;10.57;3.53;;;;;;;;;;5065756;28;20017;-90
2021/09/13 09:10:28;;;;;;;6.93;3.60;;;;;;;;;;5072746;28;20028;-90
2021/09/13 09:12:57;;;;;;;8.50;2.90;;;;;;;;;;5073821;28;20103;-90
2021/09/13 09:15:22;;;;;;;13.38;3.85;;;;;;;;;;5058507;28;20029;-90
2021/09/13 09:17:51;;;;;;;8.20;3.10;;;;;;;;;;5063693;28;20476;-91
2021/09/13 09:20:16;;;;;;;8.52;3.25;;;;;;;;;;5066762;28;20399;-90
2021/09/13 09:22:42;;;;;;;6.03;3.17;;;;;;;;;;5065973;28;20029;-91
2021/09/13 09:25:09;;;;;;;7.05;3.20;;;;;;;;;;5065750;28;20024;-90
2021/09/13 09:27:54;;;;;;;9.15;3.67;;;;;;;;;;5068109;28;20012;-90
2021/09/13 09:30:19;;;;;;;3.92;2.40;;;;;;;;;;5065365;28;20029;-89
2021/09/13 09:33:00;;;;;;;7.65;2.38;;;;;;;;;;5072282;28;20020;-90
2021/09/13 09:35:25;;;;;;;5.50;2.78;;;;;;;;;;5060616;28;20100;-90
2021/09/13 09:37:50;;;;;;;4.80;2.47;;;;;;;;;;5066736;28;20143;-89
2021/09/13 09:40:26;;;;;;;3.85;2.65;;;;;;;;;;5052159;28;20025;-89
2021/09/13 09:42:53;;;;;;;8.25;2.55;;;;;;;;;;5071340;28;20032;-89
2021/09/13 09:45:18;;;;;;;7.00;2.72;;;;;;;;;;5065625;28;20426;-89
2021/09/13 09:47:44;;;;;;;5.30;2.28;;;;;;;;;;5056663;28;20025;-89
2021/09/13 09:50:09;;;;;;;5.75;2.38;;;;;;;;;;5055852;28;20017;-89
2021/09/13 09:52:38;;;;;;;7.18;2.50;;;;;;;;;;5062440;28;20078;-89
2021/09/13 09:55:04;;;;;;;5.85;2.47;;;;;;;;;;5071968;28;20047;-88
2021/09/13 09:57:29;;;;;;;6.47;2.47;;;;;;;;;;5072134;28;20427;-89
2021/09/13 09:59:54;;;;;;;4.53;2.20;;;;;;;;;;5058564;28;20020;-89
2021/09/13 10:02:20;;;;;;;4.95;2.40;;;;;;;;;;5058866;28;20115;-88
2021/09/13 10:04:46;;;;;;;6.88;2.40;;;;;;;;;;5061485;28;20227;-89
2021/09/13 10:07:12;;;;;;;8.73;2.83;;;;;;;;;;5067751;28;20032;-89
2021/09/13 10:09:38;;;;;;;6.13;2.50;;;;;;;;;;5051571;28;20096;-90
2021/09/13 10:12:04;;;;;;;13.95;3.17;;;;;;;;;;5068392;28;20417;-90
2021/09/13 10:14:30;;;;;;;4.35;2.30;;;;;;;;;;5059632;28;20017;-88
2021/09/13 10:16:56;;;;;;;6.22;2.30;;;;;;;;;;5053925;28;20075;-90
2021/09/13 10:19:22;;;;;;;8.80;2.47;;;;;;;;;;5058311;28;20646;-90
2021/09/13 10:21:51;;;;;;;3.92;2.33;;;;;;;;;;5072065;28;20576;-90
2021/09/13 10:24:18;;;;;;;5.18;2.33;;;;;;;;;;5057114;28;20025;-90
2021/09/13 10:26:50;;;;;;;4.60;1.88;;;;;;;;;;5072035;28;20028;-90
2021/09/13 10:29:17;;;;;;;3.95;1.80;;;;;;;;;;5056909;28;20032;-90
2021/09/13 10:31:42;;;;;;;3.20;1.85;;;;;;;;;;5071517;28;20020;-89
2021/09/13 10:34:14;;;;;;;8.63;1.80;;;;;;;;;;5054869;28;20029;-89
2021/09/13 10:36:58;;;;;;;4.93;2.10;;;;;;;;;;5067950;28;20034;-90
2021/09/13 10:39:42;;;;;;;5.38;1.65;;;;;;;;;;5056415;28;20090;-90
2021/09/13 10:42:07;;;;;;;3.00;1.60;;;;;;;;;;5057081;28;20091;-90
2021/09/13 10:44:35;;;;;;;4.18;1.80;;;;;;;;;;5064180;28;20057;-89
2021/09/13 10:47:04;;;;;;;6.35;1.58;;;;;;;;;;5060376;28;20012;-90
2021/09/13 10:49:30;;;;;;;6.47;1.70;;;;;;;;;;5071474;28;20024;-90
2021/09/13 10:52:14;;;;;;;10.50;2.00;;;;;;;;;;5069915;28;20053;-89
2021/09/13 10:54:58;;;;;;;3.60;1.60;;;;;;;;;;5053408;28;20021;-89
2021/09/13 10:57:43;;;;;;;1.75;1.30;;;;;;;;;;5051365;28;20361;-90
2021/09/13 11:00:09;;;;;;;5.10;1.40;;;;;;;;;;5064587;28;20020;-89
2021/09/13 11:02:34;;;;;;;3.92;1.70;;;;;;;;;;5074033;28;20013;-89
2021/09/13 11:05:18;;;;;;;3.83;1.77;;;;;;;;;;5069301;28;20487;-89
2021/09/13 11:08:02;;;;;;;3.28;1.73;;;;;;;;;;5058373;28;20032;-89
2021/09/13 11:10:27;;;;;;;3.00;1.70;;;;;;;;;;5058960;28;20021;-89
2021/09/13 11:12:54;;;;;;;3.33;1.50;;;;;;;;;;5063991;28;20161;-90
2021/09/13 11:15:20;;;;;;;4.05;1.60;;;;;;;;;;5074506;28;20069;-89
2021/09/13 11:17:52;;;;;;;5.65;1.63;;;;;;;;;;5075193;28;20526;-90
2021/09/13 11:20:26;;;;;;;4.82;1.75;;;;;;;;;;5064866;28;20025;-89
2021/09/13 11:22:52;;;;;;;6.28;1.73;;;;;;;;;;5067203;28;20021;-90
2021/09/13 11:25:17;;;;;;;3.78;1.83;;;;;;;;;;5069354;28;20103;-89
2021/09/13 11:27:42;;;;;;;2.05;1.42;;;;;;;;;;5061354;28;20025;-89
2021/09/13 11:30:07;;;;;;;3.13;1.75;;;;;;;;;;5062849;28;20468;-89
2021/09/13 11:32:33;;;;;;;4.10;1.52;;;;;;;;;;5067152;28;20015;-90
2021/09/13 11:34:58;;;;;;;6.68;1.90;;;;;;;;;;5074501;28;20495;-89
2021/09/13 11:37:26;;;;;;;3.53;1.88;;;;;;;;;;5072994;28;20395;-89
2021/09/13 11:39:52;;;;;;;4.03;2.05;;;;;;;;;;5049357;28;20020;-90
2021/09/13 11:42:20;;;;;;;4.20;2.20;;;;;;;;;;5072552;28;20459;-90
2021/09/13 11:44:53;;;;;;;4.53;2.25;;;;;;;;;;5071078;28;20024;-89
2021/09/13 11:47:20;;;;;;;6.28;2.60;;;;;;;;;;5065511;28;20031;-89
2021/09/13 11:49:46;;;;;;;2.67;1.83;;;;;;;;;;5058577;28;20025;-89
2021/09/13 11:52:28;;;;;;;6.07;2.25;;;;;;;;;;5074322;28;20514;-89
2021/09/13 11:55:00;;;;;;;3.53;2.03;;;;;;;;;;5070037;28;20030;-90
2021/09/13 11:57:31;;;;;;;4.07;1.90;;;;;;;;;;5042846;28;20032;-90
2021/09/13 11:59:58;;;;;;;6.10;2.10;;;;;;;;;;5060022;28;20021;-90
2021/09/13 12:02:23;;;;;;;8.68;2.25;;;;;;;;;;5064339;28;20031;-89
2021/09/13 12:04:50;;;;;;;7.93;2.25;;;;;;;;;;5073834;28;20021;-89
2021/09/13 12:07:15;;;;;;;8.95;2.42;;;;;;;;;;5073846;28;20023;-90
2021/09/13 12:09:42;;;;;;;8.68;2.67;;;;;;;;;;5063528;28;20455;-89
2021/09/13 12:12:07;;;;;;;11.15;2.50;;;;;;;;;;5056613;28;20035;-90
2021/09/13 12:14:34;;;;;;;6.88;2.90;;;;;;;;;;5073422;28;20020;-90
2021/09/13 12:17:08;;;;;;;5.38;2.33;;;;;;;;;;5072020;28;20528;-89
2021/09/13 12:19:34;;;;;;;5.45;2.83;;;;;;;;;;5073915;28;20027;-89
2021/09/13 12:22:03;;;;;;;4.72;2.08;;;;;;;;;;5059496;28;20104;-89
2021/09/13 12:24:29;;;;;;;5.85;2.78;;;;;;;;;;5073548;28;20040;-90
2021/09/13 12:26:54;;;;;;;10.60;3.38;;;;;;;;;;5073494;28;20150;-89
2021/09/13 12:29:19;;;;;;;8.48;2.70;;;;;;;;;;5073337;28;20020;-88
2021/09/13 12:31:44;;;;;;;6.07;2.55;;;;;;;;;;5062284;28;20074;-90
2021/09/13 12:34:10;;;;;;;5.03;2.67;;;;;;;;;;5070085;28;20020;-89
2021/09/13 12:36:35;;;;;;;5.88;2.63;;;;;;;;;;5072981;28;20093;-89
2021/09/13 12:39:06;;;;;;;9.40;3.25;;;;;;;;;;5058999;28;20043;-90
2021/09/13 12:41:43;;;;;;;10.18;3.28;;;;;;;;;;5060416;28;20158;-89
2021/09/13 12:44:13;;;;;;;6.38;3.33;;;;;;;;;;5072940;28;20073;-89
2021/09/13 12:47:05;;;;;;;6.93;3.63;;;;;;;;;;5072668;28;20111;-90
2021/09/13 12:49:31;;;;;;;6.13;2.97;;;;;;;;;;5067692;28;20047;-89
2021/09/13 12:52:01;;;;;;;8.27;3.25;;;;;;;;;;5073066;28;20025;-89
2021/09/13 12:54:28;;;;;;;6.43;2.88;;;;;;;;;;5074036;28;20474;-89
2021/09/13 12:56:53;;;;;;;5.40;3.40;;;;;;;;;;5073000;28;20028;-89
2021/09/13 12:59:20;;;;;;;7.47;3.45;;;;;;;;;;5072726;28;20475;-89
2021/09/13 13:01:47;;;;;;;5.45;3.25;;;;;;;;;;5072819;28;20074;-89
2021/09/13 13:04:15;;;;;;;5.25;3.47;;;;;;;;;;5065044;28;20032;-89
2021/09/13 13:06:41;;;;;;;4.40;3.30;;;;;;;;;;5065231;28;20016;-89
2021/09/13 13:09:08;;;;;;;6.50;4.13;;;;;;;;;;5066278;28;20074;-89
2021/09/13 13:11:34;;;;;;;7.47;3.95;;;;;;;;;;5065008;28;20423;-89
2021/09/13 13:14:00;;;;;;;8.38;4.00;;;;;;;;;;5059636;28;20062;-89
2021/09/13 13:16:41;;;;;;;11.88;4.68;;;;;;;;;;5072742;28;20021;-89
2021/09/13 13:19:08;;;;;;;7.72;4.45;;;;;;;;;;5072132;28;20024;-89
2021/09/13 13:21:33;;;;;;;7.32;4.70;;;;;;;;;;5072706;28;20036;-89
2021/09/13 13:23:59;;;;;;;8.40;4.97;;;;;;;;;;5069819;28;20021;-89
2021/09/13 13:26:24;;;;;;;9.73;4.78;;;;;;;;;;5060824;28;20028;-90
2021/09/13 13:28:49;;;;;;;11.60;4.88;;;;;;;;;;5069366;28;20119;-90
2021/09/13 13:31:14;;;;;;;11.10;5.55;;;;;;;;;;5064464;28;20120;-90
2021/09/13 13:33:40;;;;;;;11.55;5.15;;;;;;;;;;5059879;28;20067;-90
2021/09/13 13:36:05;;;;;;;9.00;4.80;;;;;;;;;;5061075;28;20112;-90
2021/09/13 13:38:30;;;;;;;8.35;5.00;;;;;;;;;;5066328;28;20017;-89
2021/09/13 13:40:55;;;;;;;12.75;5.80;;;;;;;;;;5073184;28;20036;-89
2021/09/13 13:43:20;;;;;;;11.38;6.00;;;;;;;;;;5056663;28;20040;-89
2021/09/13 13:45:46;;;;;;;9.15;5.75;;;;;;;;;;5094152;28;20034;-90
2021/09/13 13:48:12;;;;;;;11.63;6.15;;;;;;;;;;5071845;28;20099;-90
2021/09/13 13:50:39;;;;;;;9.80;5.35;;;;;;;;;;5069033;28;20492;-89
2021/09/13 13:53:04;;;;;;;7.88;5.60;;;;;;;;;;5051652;28;20020;-90
2021/09/13 13:55:30;;;;;;;9.27;6.00;;;;;;;;;;5053487;28;20452;-89
2021/09/13 13:57:55;;;;;;;9.85;5.97;;;;;;;;;;5052021;28;20024;-90
2021/09/13 14:00:20;;;;;;;11.73;6.88;;;;;;;;;;5056963;28;20048;-89
2021/09/13 14:02:46;;;;;;;9.90;6.38;;;;;;;;;;5061770;28;20098;-88
2021/09/13 14:05:11;;;;;;;9.75;6.15;;;;;;;;;;5060607;28;20024;-89
2021/09/13 14:07:37;;;;;;;11.88;6.18;;;;;;;;;;5072113;28;20442;-89
2021/09/13 14:10:05;;;;;;;10.77;6.22;;;;;;;;;;5071870;28;20472;-89
2021/09/13 14:12:31;;;;;;;11.68;6.18;;;;;;;;;;5071683;28;20020;-89
2021/09/13 14:14:56;;;;;;;13.05;6.68;;;;;;;;;;5071125;28;20476;-89
2021/09/13 14:17:21;;;;;;;9.00;5.72;;;;;;;;;;5059310;28;20019;-88
2021/09/13 14:19:46;;;;;;;11.70;6.00;;;;;;;;;;5062327;28;20028;-89
2021/09/13 14:22:12;;;;;;;9.75;6.43;;;;;;;;;;5072947;28;20070;-89
2021/09/13 14:24:37;;;;;;;10.32;6.18;;;;;;;;;;5071651;28;20036;-88
2021/09/13 14:27:03;;;;;;;9.88;5.78;;;;;;;;;;5054090;28;20073;-89
2021/09/13 14:29:28;;;;;;;9.57;6.40;;;;;;;;;;5071298;28;20016;-88
2021/09/13 14:31:53;;;;;;;13.18;6.53;;;;;;;;;;5071396;28;20019;-89
2021/09/13 14:34:19;;;;;;;15.27;5.80;;;;;;;;;;5071660;28;20013;-88
2021/09/13 14:36:44;;;;;;;10.75;5.63;;;;;;;;;;5068666;28;20028;-88